Terminal Aerodrome Forecast
Issued by NWS

Home | Current Version | Previous Version | Text Only | Print | Product List | Glossary On
Versions: 1 2 3 4 5 6 7 8 9 10 11 12 13 14 15 16
000
FTUS46 KMTR 190500
TAFOAK
TAF
KOAK 190526Z 1906/2012 30007KT P6SM FEW010
     FM190900 31004KT P6SM BKN008
     FM191800 27005KT P6SM FEW010
     FM192100 29013KT P6SM SKC
     FM200400 31009KT P6SM SCT010
     FM200600 30006KT P6SM BKN010=

USA.gov is the U.S. government's official web portal to all federal, state and local government web resources and services.